createdAt,value
2023-04-27T00:00:01.414Z,9.00
2023-04-27T00:02:29.895Z,9.10
2023-04-27T00:04:59.823Z,9.10
2023-04-27T00:07:28.426Z,9.10
2023-04-27T00:09:57.302Z,9.10
2023-04-27T00:12:25.777Z,9.00
2023-04-27T00:14:54.064Z,9.10
2023-04-27T00:17:22.758Z,9.00
2023-04-27T00:19:52.293Z,9.00
2023-04-27T00:22:22.300Z,9.00
2023-04-27T00:24:50.695Z,9.00
2023-04-27T00:27:19.305Z,9.00
2023-04-27T00:29:47.676Z,9.00
2023-04-27T00:32:16.573Z,9.10
2023-04-27T00:34:45.043Z,9.20
2023-04-27T00:37:13.602Z,9.30
2023-04-27T00:39:43.388Z,9.10
2023-04-27T00:42:15.370Z,9.10
2023-04-27T00:44:43.649Z,8.90
2023-04-27T00:47:12.684Z,8.90
2023-04-27T00:49:42.253Z,8.90
2023-04-27T00:52:10.796Z,8.90
2023-04-27T00:54:39.441Z,8.80
2023-04-27T00:57:10.116Z,8.80
2023-04-27T00:59:38.506Z,8.80
2023-04-27T01:02:07.366Z,8.80
2023-04-27T01:04:36.989Z,8.80
2023-04-27T01:07:05.545Z,8.70
2023-04-27T01:09:33.965Z,8.70
2023-04-27T01:12:03.300Z,8.70
2023-04-27T01:14:33.101Z,8.60
2023-04-27T01:17:01.446Z,8.70
2023-04-27T01:19:29.918Z,8.70
2023-04-27T01:21:58.362Z,8.70
2023-04-27T01:24:28.249Z,8.60
2023-04-27T01:26:56.700Z,8.60
2023-04-27T01:29:25.566Z,8.60
2023-04-27T01:31:54.042Z,8.60
2023-04-27T01:34:22.496Z,8.60
2023-04-27T01:36:50.829Z,8.60
2023-04-27T01:39:19.301Z,8.50
2023-04-27T01:41:49.068Z,8.60
2023-04-27T01:44:17.400Z,8.50
2023-04-27T01:46:45.825Z,8.40
2023-04-27T01:49:14.603Z,8.40
2023-04-27T01:51:43.186Z,8.40
2023-04-27T01:54:11.572Z,8.40
2023-04-27T01:56:40.368Z,8.40
2023-04-27T01:59:10.264Z,8.30
2023-04-27T02:01:38.798Z,8.30
2023-04-27T02:04:07.390Z,8.30
2023-04-27T02:06:36.366Z,8.20
2023-04-27T02:09:05.407Z,8.20
2023-04-27T02:11:33.840Z,8.20
2023-04-27T02:14:02.632Z,8.10
2023-04-27T02:16:32.400Z,8.00
2023-04-27T02:19:01.019Z,7.90
2023-04-27T02:21:29.700Z,7.80
2023-04-27T02:23:58.402Z,7.80
2023-04-27T02:26:29.474Z,7.70
2023-04-27T02:28:58.110Z,7.60
2023-04-27T02:31:27.417Z,7.70
2023-04-27T02:33:57.035Z,7.70
2023-04-27T02:36:25.549Z,7.70
2023-04-27T02:38:54.057Z,7.70
2023-04-27T02:41:22.515Z,7.70
2023-04-27T02:43:52.464Z,7.60
2023-04-27T02:46:21.289Z,7.60
2023-04-27T02:48:50.212Z,7.60
2023-04-27T02:51:19.903Z,7.60
2023-04-27T02:53:48.414Z,7.60
2023-04-27T02:56:17.093Z,7.60
2023-04-27T02:58:45.927Z,7.50
2023-04-27T03:01:14.522Z,7.50
2023-04-27T03:03:43.017Z,7.40
2023-04-27T03:06:11.701Z,7.50
2023-04-27T03:08:41.554Z,7.40
2023-04-27T03:11:10.477Z,7.40
2023-04-27T03:13:42.117Z,7.30
2023-04-27T03:16:11.674Z,7.30
2023-04-27T03:18:40.619Z,7.30
2023-04-27T03:21:10.134Z,7.30
2023-04-27T03:23:38.809Z,7.30
2023-04-27T03:26:12.432Z,7.20
2023-04-27T03:28:41.977Z,7.20
2023-04-27T03:31:11.736Z,7.20
2023-04-27T03:33:40.601Z,7.20
2023-04-27T03:36:10.494Z,7.10
2023-04-27T03:38:38.868Z,7.10
2023-04-27T03:41:07.252Z,7.10
2023-04-27T03:43:37.231Z,7.00
2023-04-27T03:46:05.878Z,7.00
2023-04-27T03:48:34.326Z,7.00
2023-04-27T03:51:02.853Z,7.00
2023-04-27T03:53:31.662Z,6.90
2023-04-27T03:56:00.262Z,6.90
2023-04-27T03:58:28.680Z,6.90
2023-04-27T04:00:58.832Z,6.90
2023-04-27T04:03:27.471Z,6.90
2023-04-27T04:05:56.495Z,6.90
2023-04-27T04:08:25.163Z,6.90
2023-04-27T04:10:53.685Z,6.80
2023-04-27T04:13:22.188Z,6.80
2023-04-27T04:15:50.616Z,6.80
2023-04-27T04:18:20.634Z,6.80
2023-04-27T04:20:49.146Z,6.80
2023-04-27T04:23:17.614Z,6.80
2023-04-27T04:25:48.139Z,6.70
2023-04-27T04:28:16.658Z,6.70
2023-04-27T04:30:45.623Z,6.70
2023-04-27T04:33:13.995Z,6.70
2023-04-27T04:35:43.671Z,6.70
2023-04-27T04:38:12.919Z,6.70
2023-04-27T04:40:43.109Z,6.70
2023-04-27T04:43:13.451Z,6.60
2023-04-27T04:45:42.887Z,6.70
2023-04-27T04:48:11.612Z,6.70
2023-04-27T04:50:42.138Z,6.70
2023-04-27T04:53:12.120Z,6.70
2023-04-27T04:55:41.090Z,6.60
2023-04-27T04:58:09.647Z,6.60
2023-04-27T05:00:38.292Z,6.60
2023-04-27T05:03:07.809Z,6.60
2023-04-27T05:05:36.488Z,6.60
2023-04-27T05:08:04.976Z,6.60
2023-04-27T05:10:34.626Z,6.60
2023-04-27T05:13:03.845Z,6.60
2023-04-27T05:15:33.756Z,6.70
2023-04-27T05:18:02.475Z,6.70
2023-04-27T05:20:30.968Z,6.70
2023-04-27T05:22:59.512Z,6.70
2023-04-27T05:25:28.156Z,6.70
2023-04-27T05:27:57.936Z,6.80
2023-04-27T05:30:27.195Z,6.70
2023-04-27T05:32:55.826Z,6.70
2023-04-27T05:35:24.373Z,6.70
2023-04-27T05:37:53.077Z,6.80
2023-04-27T05:40:21.826Z,6.80
2023-04-27T05:42:50.534Z,6.90
2023-04-27T05:45:20.210Z,6.90
2023-04-27T05:47:49.090Z,7.00
2023-04-27T05:50:17.688Z,7.10
2023-04-27T05:52:46.432Z,7.20
2023-04-27T05:55:14.854Z,7.50
2023-04-27T05:57:43.276Z,7.80
2023-04-27T06:00:13.139Z,7.70
2023-04-27T06:02:43.076Z,7.70
2023-04-27T06:05:12.206Z,7.70
2023-04-27T06:07:41.377Z,7.50
2023-04-27T06:10:11.491Z,7.50
2023-04-27T06:12:39.980Z,7.40
2023-04-27T06:15:09.921Z,7.50
2023-04-27T06:17:38.726Z,7.50
2023-04-27T06:20:10.158Z,7.50
2023-04-27T06:22:38.656Z,7.60
2023-04-27T06:25:07.783Z,7.50
2023-04-27T06:27:36.407Z,7.60
2023-04-27T06:30:05.345Z,7.60
2023-04-27T06:32:33.783Z,7.80
2023-04-27T06:35:02.308Z,7.70
2023-04-27T06:37:32.811Z,7.70
2023-04-27T06:40:01.440Z,7.80
2023-04-27T06:42:29.926Z,7.80
2023-04-27T06:44:58.519Z,7.80
2023-04-27T06:47:27.369Z,7.80
2023-04-27T06:49:55.874Z,7.90
2023-04-27T06:52:24.345Z,8.00
2023-04-27T06:54:54.135Z,8.10
2023-04-27T06:57:22.544Z,8.20
2023-04-27T06:59:51.104Z,8.50
2023-04-27T07:02:19.547Z,8.50
2023-04-27T07:04:48.133Z,8.50
2023-04-27T07:07:16.652Z,8.70
2023-04-27T07:09:45.129Z,8.70
2023-04-27T07:12:14.850Z,9.00
2023-04-27T07:14:43.330Z,9.00
2023-04-27T07:17:11.860Z,9.20
2023-04-27T07:19:40.346Z,9.50
2023-04-27T07:22:10.092Z,9.30
2023-04-27T07:24:38.796Z,9.40
2023-04-27T07:27:07.219Z,9.30
2023-04-27T07:29:38.023Z,9.50
2023-04-27T07:32:07.893Z,9.40
2023-04-27T07:34:49.112Z,9.50
2023-04-27T07:37:21.053Z,10.80
2023-04-27T07:39:52.006Z,11.00
2023-04-27T07:42:22.338Z,12.70
2023-04-27T07:44:52.430Z,12.50
2023-04-27T07:47:21.822Z,12.60
2023-04-27T07:49:50.262Z,13.00
2023-04-27T07:52:18.680Z,12.80
2023-04-27T07:54:47.016Z,12.90
2023-04-27T07:57:15.718Z,13.80
2023-04-27T07:59:44.311Z,12.80
2023-04-27T08:02:19.691Z,13.80
2023-04-27T08:04:49.650Z,14.20
2023-04-27T08:07:19.743Z,13.70
2023-04-27T08:09:48.531Z,14.10
2023-04-27T08:12:17.207Z,14.50
2023-04-27T08:14:45.886Z,15.00
2023-04-27T08:17:15.644Z,13.70
2023-04-27T08:19:43.985Z,14.20
2023-04-27T08:22:12.758Z,14.00
2023-04-27T08:24:41.199Z,13.70
2023-04-27T08:27:09.854Z,14.20
2023-04-27T08:29:38.436Z,14.70
2023-04-27T08:32:07.158Z,15.00
2023-04-27T08:34:36.766Z,14.50
2023-04-27T08:37:05.310Z,15.10
2023-04-27T08:39:33.745Z,15.40
2023-04-27T08:42:02.281Z,15.70
2023-04-27T08:44:31.083Z,15.50
2023-04-27T08:46:59.475Z,15.40
2023-04-27T08:49:28.152Z,15.60
2023-04-27T08:51:57.982Z,15.50
2023-04-27T08:54:27.080Z,14.90
2023-04-27T08:56:55.646Z,15.00
2023-04-27T08:59:24.299Z,15.00
2023-04-27T09:01:52.771Z,15.30
2023-04-27T09:04:21.548Z,15.60
2023-04-27T09:06:50.788Z,16.40
2023-04-27T09:09:26.733Z,16.40
2023-04-27T09:11:55.144Z,15.70
2023-04-27T09:14:25.011Z,16.00
2023-04-27T09:16:59.307Z,15.50
2023-04-27T09:19:30.504Z,15.30
2023-04-27T09:22:09.016Z,15.70
2023-04-27T09:24:39.121Z,15.80
2023-04-27T09:27:09.510Z,15.10
2023-04-27T09:29:39.321Z,15.40
2023-04-27T09:32:17.957Z,16.10
2023-04-27T09:34:46.625Z,15.90
2023-04-27T09:37:16.716Z,16.00
2023-04-27T09:39:47.545Z,16.30
2023-04-27T09:42:16.154Z,16.70
2023-04-27T09:44:44.559Z,16.80
2023-04-27T09:47:14.691Z,16.00
2023-04-27T09:49:43.176Z,16.80
2023-04-27T09:52:12.015Z,17.30
2023-04-27T09:54:41.326Z,17.40
2023-04-27T09:57:20.188Z,17.40
2023-04-27T10:00:11.986Z,17.50
2023-04-27T10:02:53.553Z,17.10
2023-04-27T10:05:39.086Z,16.80
2023-04-27T10:08:08.178Z,17.00
2023-04-27T10:10:44.794Z,16.80
2023-04-27T10:13:23.302Z,17.10
2023-04-27T10:15:52.460Z,16.90
2023-04-27T10:18:28.708Z,17.20
2023-04-27T10:20:57.286Z,17.60
2023-04-27T10:23:26.504Z,17.40
2023-04-27T10:25:55.861Z,17.20
2023-04-27T10:28:25.716Z,17.10
2023-04-27T10:30:54.268Z,17.20
2023-04-27T10:33:24.213Z,16.60
2023-04-27T10:35:56.976Z,16.90
2023-04-27T10:38:30.114Z,17.00
2023-04-27T10:41:01.570Z,17.10
2023-04-27T10:43:32.954Z,17.30
2023-04-27T10:46:12.323Z,16.90
2023-04-27T10:48:42.440Z,17.40
2023-04-27T10:51:11.279Z,17.20
2023-04-27T10:53:39.731Z,17.20
2023-04-27T10:56:08.280Z,17.30
2023-04-27T11:01:11.111Z,17.90
2023-04-27T11:03:40.041Z,17.90
2023-04-27T11:06:08.709Z,17.80
2023-04-27T11:08:45.445Z,18.10
2023-04-27T11:11:16.975Z,18.40
2023-04-27T11:13:49.416Z,17.90
2023-04-27T11:16:19.430Z,18.40
2023-04-27T11:18:47.875Z,18.10
2023-04-27T11:21:17.551Z,18.20
2023-04-27T11:23:46.093Z,18.50
2023-04-27T11:26:16.072Z,18.60
2023-04-27T11:28:58.916Z,18.70
2023-04-27T11:31:27.484Z,18.30
2023-04-27T11:33:56.370Z,18.70
2023-04-27T11:36:27.239Z,18.60
2023-04-27T11:39:00.168Z,18.50
2023-04-27T11:41:35.195Z,18.00
2023-04-27T11:44:08.815Z,18.00
2023-04-27T11:46:38.185Z,18.20
2023-04-27T11:49:08.819Z,18.00
2023-04-27T11:51:37.719Z,17.80
2023-04-27T11:54:06.982Z,17.60
2023-04-27T11:56:39.671Z,17.90
2023-04-27T11:59:20.475Z,18.20
2023-04-27T12:01:49.071Z,18.10
2023-04-27T12:04:18.065Z,18.00
2023-04-27T12:06:46.998Z,17.80
2023-04-27T12:09:17.430Z,18.10
2023-04-27T12:11:45.984Z,18.40
2023-04-27T12:14:15.808Z,18.10
2023-04-27T12:16:44.442Z,18.40
2023-04-27T12:19:12.968Z,18.00
2023-04-27T12:21:42.880Z,18.10
2023-04-27T12:24:12.037Z,18.20
2023-04-27T12:26:41.050Z,18.20
2023-04-27T12:29:09.444Z,18.60
2023-04-27T12:31:39.383Z,18.40
2023-04-27T12:34:08.102Z,18.30
2023-04-27T12:36:36.794Z,18.40
2023-04-27T12:39:15.036Z,18.40
2023-04-27T12:41:44.286Z,18.70
2023-04-27T12:44:13.512Z,18.70
2023-04-27T12:46:45.007Z,18.90
2023-04-27T12:49:14.157Z,18.50
2023-04-27T12:51:42.801Z,18.90
2023-04-27T12:54:13.045Z,18.90
2023-04-27T12:56:41.954Z,18.70
2023-04-27T12:59:11.044Z,18.70
2023-04-27T13:01:39.574Z,18.80
2023-04-27T13:04:09.470Z,18.80
2023-04-27T13:06:38.245Z,18.80
2023-04-27T13:09:06.966Z,18.80
2023-04-27T13:11:35.250Z,18.60
2023-04-27T13:14:04.899Z,18.50
2023-04-27T13:16:33.482Z,18.50
2023-04-27T13:19:02.004Z,18.90
2023-04-27T13:21:33.249Z,18.80
2023-04-27T13:24:01.734Z,18.80
2023-04-27T13:26:30.279Z,18.70
2023-04-27T13:28:59.205Z,19.00
2023-04-27T13:31:27.865Z,18.80
2023-04-27T13:33:56.471Z,18.80
2023-04-27T13:36:24.757Z,19.10
2023-04-27T13:38:57.292Z,19.10
2023-04-27T13:41:25.982Z,19.40
2023-04-27T13:43:54.439Z,19.50
2023-04-27T13:46:22.912Z,19.40
2023-04-27T13:48:51.342Z,19.40
2023-04-27T13:51:20.046Z,19.40
2023-04-27T13:53:48.406Z,19.40
2023-04-27T13:56:18.306Z,19.50
2023-04-27T13:58:47.101Z,19.50
2023-04-27T14:01:15.958Z,19.20
2023-04-27T14:03:44.488Z,19.20
2023-04-27T14:06:12.919Z,19.30
2023-04-27T14:08:41.939Z,19.30
2023-04-27T14:11:12.466Z,19.40
2023-04-27T14:13:42.281Z,19.50
2023-04-27T14:16:10.806Z,19.40
2023-04-27T14:18:39.402Z,19.00
2023-04-27T14:21:07.803Z,19.00
2023-04-27T14:23:36.507Z,19.10
2023-04-27T14:26:05.875Z,19.10
2023-04-27T14:28:34.636Z,19.50
2023-04-27T14:31:04.364Z,19.10
2023-04-27T14:33:32.761Z,19.30
2023-04-27T14:36:01.441Z,19.60
2023-04-27T14:38:29.873Z,19.70
2023-04-27T14:40:58.305Z,19.40
2023-04-27T14:43:27.011Z,19.50
2023-04-27T14:46:02.117Z,19.10
2023-04-27T14:48:42.133Z,19.40
2023-04-27T14:51:11.324Z,19.60
2023-04-27T14:53:39.868Z,19.40
2023-04-27T14:56:08.628Z,19.70
2023-04-27T14:58:37.115Z,19.60
2023-04-27T15:01:06.168Z,19.70
2023-04-27T15:03:34.824Z,19.70
2023-04-27T15:06:05.651Z,19.70
2023-04-27T15:08:34.522Z,19.70
2023-04-27T15:11:04.426Z,19.60
2023-04-27T15:13:32.832Z,19.50
2023-04-27T15:16:02.224Z,19.50
2023-04-27T15:18:30.748Z,19.50
2023-04-27T15:20:59.983Z,19.60
2023-04-27T15:23:29.628Z,19.40
2023-04-27T15:25:59.625Z,19.80
2023-04-27T15:28:28.615Z,19.50
2023-04-27T15:30:57.109Z,18.90
2023-04-27T15:33:25.659Z,18.60
2023-04-27T15:35:54.144Z,18.60
2023-04-27T15:38:22.994Z,18.80
2023-04-27T15:40:52.612Z,18.50
2023-04-27T15:43:21.743Z,18.30
2023-04-27T15:45:50.648Z,18.30
2023-04-27T15:48:19.288Z,18.10
2023-04-27T15:50:48.472Z,18.00
2023-04-27T15:53:17.149Z,18.20
2023-04-27T15:55:45.987Z,18.30
2023-04-27T15:58:16.236Z,18.00
2023-04-27T16:00:44.799Z,18.40
2023-04-27T16:03:14.386Z,18.10
2023-04-27T16:05:43.197Z,17.80
2023-04-27T16:08:11.642Z,17.50
2023-04-27T16:10:40.450Z,17.50
2023-04-27T16:13:09.148Z,17.60
2023-04-27T16:15:38.787Z,17.10
2023-04-27T16:18:07.268Z,16.20
2023-04-27T16:20:36.567Z,16.30
2023-04-27T16:23:05.220Z,17.50
2023-04-27T16:25:33.644Z,16.50
2023-04-27T16:28:02.092Z,16.00
2023-04-27T16:30:30.751Z,15.80
2023-04-27T16:33:00.579Z,15.80
2023-04-27T16:35:30.204Z,16.50
2023-04-27T16:37:58.596Z,16.20
2023-04-27T16:40:27.174Z,15.80
2023-04-27T16:42:55.705Z,15.60
2023-04-27T16:45:24.152Z,15.50
2023-04-27T16:47:52.647Z,15.40
2023-04-27T16:50:23.267Z,15.40
2023-04-27T16:52:51.768Z,15.30
2023-04-27T16:55:20.231Z,15.20
2023-04-27T16:57:48.783Z,15.20
2023-04-27T17:00:17.711Z,15.10
2023-04-27T17:02:46.509Z,15.00
2023-04-27T17:05:15.160Z,15.40
2023-04-27T17:07:44.782Z,15.80
2023-04-27T17:10:13.333Z,15.80
2023-04-27T17:12:41.754Z,15.80
2023-04-27T17:15:12.053Z,15.90
2023-04-27T17:17:41.280Z,16.40
2023-04-27T17:20:10.786Z,16.20
2023-04-27T17:22:39.348Z,16.00
2023-04-27T17:25:10.012Z,17.30
2023-04-27T17:27:38.786Z,17.70
2023-04-27T17:30:09.691Z,17.40
2023-04-27T17:32:38.249Z,17.10
2023-04-27T17:35:07.186Z,17.90
2023-04-27T17:37:35.601Z,18.00
2023-04-27T17:40:06.058Z,17.30
2023-04-27T17:42:35.868Z,16.80
2023-04-27T17:45:04.331Z,16.90
2023-04-27T17:47:33.716Z,16.40
2023-04-27T17:50:02.229Z,16.10
2023-04-27T17:52:30.853Z,16.00
2023-04-27T17:54:59.411Z,16.10
2023-04-27T17:57:27.883Z,15.90
2023-04-27T17:59:57.665Z,15.80
2023-04-27T18:02:26.232Z,16.00
2023-04-27T18:04:54.764Z,16.40
2023-04-27T18:07:23.756Z,16.40
2023-04-27T18:09:52.667Z,16.20
2023-04-27T18:12:21.103Z,16.30
2023-04-27T18:14:50.864Z,16.40
2023-04-27T18:17:21.035Z,16.20
2023-04-27T18:20:00.913Z,16.10
2023-04-27T18:22:36.293Z,16.30
2023-04-27T18:25:04.938Z,16.60
2023-04-27T18:27:33.433Z,16.10
2023-04-27T18:30:01.859Z,16.30
2023-04-27T18:32:31.683Z,16.20
2023-04-27T18:35:00.202Z,15.90
2023-04-27T18:37:28.594Z,15.90
2023-04-27T18:39:57.235Z,16.10
2023-04-27T18:42:25.925Z,15.90
2023-04-27T18:44:55.746Z,15.70
2023-04-27T18:47:24.183Z,15.70
2023-04-27T18:49:54.135Z,15.50
2023-04-27T18:52:22.663Z,15.40
2023-04-27T18:54:51.029Z,15.60
2023-04-27T18:57:19.451Z,15.40
2023-04-27T18:59:47.883Z,15.60
2023-04-27T19:02:16.361Z,15.40
2023-04-27T19:04:52.886Z,15.10
2023-04-27T19:07:32.491Z,15.00
2023-04-27T19:10:01.085Z,14.90
2023-04-27T19:12:29.490Z,14.80
2023-04-27T19:14:57.896Z,14.70
2023-04-27T19:17:26.382Z,14.70
2023-04-27T19:19:54.869Z,14.70
2023-04-27T19:22:23.316Z,14.50
2023-04-27T19:24:53.013Z,14.60
2023-04-27T19:27:21.500Z,14.50
2023-04-27T19:29:52.349Z,14.40
2023-04-27T19:32:21.037Z,14.40
2023-04-27T19:34:49.979Z,14.30
2023-04-27T19:37:18.539Z,14.20
2023-04-27T19:39:47.112Z,14.20
2023-04-27T19:42:16.779Z,14.10
2023-04-27T19:44:45.291Z,14.00
2023-04-27T19:47:13.747Z,14.00
2023-04-27T19:49:41.999Z,14.00
2023-04-27T19:52:10.457Z,14.00
2023-04-27T19:54:39.075Z,13.90
2023-04-27T19:57:07.529Z,13.90
2023-04-27T19:59:37.936Z,14.00
2023-04-27T20:02:06.454Z,14.00
2023-04-27T20:04:35.698Z,13.90
2023-04-27T20:07:05.859Z,13.90
2023-04-27T20:09:34.908Z,13.70
2023-04-27T20:12:04.109Z,13.70
2023-04-27T20:14:35.129Z,13.60
2023-04-27T20:17:05.213Z,13.60
2023-04-27T20:19:34.032Z,13.60
2023-04-27T20:22:03.067Z,13.60
2023-04-27T20:24:31.818Z,13.50
2023-04-27T20:27:00.242Z,13.50
2023-04-27T20:29:28.708Z,13.70
2023-04-27T20:31:57.123Z,13.50
2023-04-27T20:34:26.705Z,13.70
2023-04-27T20:36:55.313Z,13.70
2023-04-27T20:39:24.330Z,13.90
2023-04-27T20:41:52.818Z,13.60
2023-04-27T20:44:22.486Z,13.50
2023-04-27T20:46:51.006Z,13.30
2023-04-27T20:49:31.423Z,13.60
2023-04-27T20:52:04.532Z,13.40
2023-04-27T20:54:33.066Z,13.60
2023-04-27T20:57:02.143Z,13.40
2023-04-27T20:59:30.674Z,13.50
2023-04-27T21:01:59.262Z,13.40
2023-04-27T21:04:27.712Z,13.30
2023-04-27T21:06:56.491Z,13.40
2023-04-27T21:09:26.254Z,14.10
2023-04-27T21:11:54.802Z,14.00
2023-04-27T21:14:23.212Z,14.00
2023-04-27T21:16:51.687Z,13.70
2023-04-27T21:19:20.148Z,13.60
2023-04-27T21:21:48.610Z,13.90
2023-04-27T21:24:17.098Z,13.90
2023-04-27T21:26:46.669Z,13.90
2023-04-27T21:29:15.403Z,13.60
2023-04-27T21:31:43.799Z,13.40
2023-04-27T21:34:12.177Z,13.20
2023-04-27T21:36:40.632Z,13.20
2023-04-27T21:39:09.045Z,12.90
2023-04-27T21:41:39.268Z,13.00
2023-04-27T21:44:10.115Z,13.00
2023-04-27T21:46:38.835Z,13.00
2023-04-27T21:49:07.610Z,13.00
2023-04-27T21:51:36.694Z,12.90
2023-04-27T21:54:05.107Z,12.90
2023-04-27T21:56:33.577Z,12.80
2023-04-27T21:59:01.975Z,12.80
2023-04-27T22:01:32.070Z,12.70
2023-04-27T22:04:01.074Z,12.60
2023-04-27T22:06:31.233Z,12.50
2023-04-27T22:09:00.266Z,12.50
2023-04-27T22:11:28.672Z,12.50
2023-04-27T22:13:57.374Z,12.70
2023-04-27T22:16:25.913Z,12.50
2023-04-27T22:18:55.574Z,12.30
2023-04-27T22:21:23.973Z,12.20
2023-04-27T22:23:52.431Z,12.10
2023-04-27T22:26:20.930Z,12.20
2023-04-27T22:28:49.362Z,12.30
2023-04-27T22:31:17.941Z,12.80
2023-04-27T22:33:46.443Z,12.90
2023-04-27T22:36:16.361Z,13.30
2023-04-27T22:38:44.961Z,13.10
2023-04-27T22:41:13.434Z,12.80
2023-04-27T22:43:41.903Z,12.30
2023-04-27T22:46:10.164Z,12.20
2023-04-27T22:48:38.918Z,12.10
2023-04-27T22:51:09.873Z,12.10
2023-04-27T22:53:39.659Z,12.30
2023-04-27T22:56:08.717Z,12.20
2023-04-27T22:58:37.285Z,12.40
2023-04-27T23:01:06.160Z,12.40
2023-04-27T23:03:34.479Z,12.40
2023-04-27T23:06:03.091Z,12.80
2023-04-27T23:08:31.620Z,12.90
2023-04-27T23:11:02.944Z,12.90
2023-04-27T23:13:31.605Z,12.70
2023-04-27T23:16:00.038Z,12.60
2023-04-27T23:18:28.466Z,12.40
2023-04-27T23:20:56.879Z,13.00
2023-04-27T23:23:25.588Z,12.90
2023-04-27T23:25:54.165Z,12.80
2023-04-27T23:28:24.086Z,12.50
2023-04-27T23:30:55.536Z,12.30
2023-04-27T23:33:24.386Z,12.30
2023-04-27T23:35:54.106Z,12.50
2023-04-27T23:38:24.281Z,12.70
2023-04-27T23:40:52.826Z,12.40
2023-04-27T23:43:21.220Z,12.30
2023-04-27T23:45:52.222Z,12.20
2023-04-27T23:48:20.917Z,12.20
2023-04-27T23:50:49.444Z,12.20
2023-04-27T23:53:18.223Z,12.10
2023-04-27T23:55:46.710Z,12.10
2023-04-27T23:58:15.104Z,12.10
